sensor_id;sensor_type;location;lat;lon;timestamp;pressure;altitude;pressure_sealevel;temperature;humidity
7441;BME280;29616;51.950;8.572;2023-05-08T00:01:06;100597.88;;;11.41;100.00
7441;BME280;29616;51.950;8.572;2023-05-08T00:03:35;100591.78;;;11.47;100.00
7441;BME280;29616;51.950;8.572;2023-05-08T00:06:07;100599.59;;;11.42;100.00
7441;BME280;29616;51.950;8.572;2023-05-08T00:08:35;100599.88;;;11.48;100.00
7441;BME280;29616;51.950;8.572;2023-05-08T00:11:05;100597.88;;;11.41;100.00
7441;BME280;29616;51.950;8.572;2023-05-08T00:13:34;100599.16;;;11.37;100.00
7441;BME280;29616;51.950;8.572;2023-05-08T00:16:02;100592.84;;;11.27;100.00
7441;BME280;29616;51.950;8.572;2023-05-08T00:18:31;100599.31;;;11.35;100.00
7441;BME280;29616;51.950;8.572;2023-05-08T00:21:01;100595.84;;;11.43;100.00
7441;BME280;29616;51.950;8.572;2023-05-08T00:23:31;100589.94;;;11.38;100.00
7441;BME280;29616;51.950;8.572;2023-05-08T00:26:00;100594.09;;;11.42;100.00
7441;BME280;29616;51.950;8.572;2023-05-08T00:28:30;100595.56;;;11.46;100.00
7441;BME280;29616;51.950;8.572;2023-05-08T00:31:00;100593.97;;;11.43;100.00
7441;BME280;29616;51.950;8.572;2023-05-08T00:33:30;100596.56;;;11.45;100.00
7441;BME280;29616;51.950;8.572;2023-05-08T00:36:02;100589.50;;;11.42;100.00
7441;BME280;29616;51.950;8.572;2023-05-08T00:38:33;100583.78;;;11.36;100.00
7441;BME280;29616;51.950;8.572;2023-05-08T00:41:03;100588.09;;;11.38;100.00
7441;BME280;29616;51.950;8.572;2023-05-08T00:43:31;100583.44;;;11.48;100.00
7441;BME280;29616;51.950;8.572;2023-05-08T00:46:01;100582.75;;;11.37;100.00
7441;BME280;29616;51.950;8.572;2023-05-08T00:48:33;100575.69;;;11.34;100.00
7441;BME280;29616;51.950;8.572;2023-05-08T00:51:07;100584.44;;;11.47;100.00
7441;BME280;29616;51.950;8.572;2023-05-08T00:53:40;100571.50;;;11.40;100.00
7441;BME280;29616;51.950;8.572;2023-05-08T00:56:14;100569.63;;;11.40;100.00
7441;BME280;29616;51.950;8.572;2023-05-08T00:58:44;100574.69;;;11.35;100.00
7441;BME280;29616;51.950;8.572;2023-05-08T01:01:16;100570.94;;;11.46;100.00
7441;BME280;29616;51.950;8.572;2023-05-08T01:03:46;100572.53;;;11.39;100.00
7441;BME280;29616;51.950;8.572;2023-05-08T01:06:18;100561.69;;;11.47;100.00
7441;BME280;29616;51.950;8.572;2023-05-08T01:08:48;100570.47;;;11.50;100.00
7441;BME280;29616;51.950;8.572;2023-05-08T01:11:25;100569.91;;;11.47;100.00
7441;BME280;29616;51.950;8.572;2023-05-08T01:14:09;100560.69;;;11.48;100.00
7441;BME280;29616;51.950;8.572;2023-05-08T01:16:45;100558.41;;;11.43;100.00
7441;BME280;29616;51.950;8.572;2023-05-08T01:19:49;100568.31;;;11.54;100.00
7441;BME280;29616;51.950;8.572;2023-05-08T01:26:22;100562.13;;;11.42;100.00
7441;BME280;29616;51.950;8.572;2023-05-08T01:29:58;100557.53;;;11.43;100.00
7441;BME280;29616;51.950;8.572;2023-05-08T01:32:40;100568.47;;;11.43;100.00
7441;BME280;29616;51.950;8.572;2023-05-08T01:35:16;100575.38;;;11.47;100.00
7441;BME280;29616;51.950;8.572;2023-05-08T01:37:53;100571.63;;;11.48;100.00
7441;BME280;29616;51.950;8.572;2023-05-08T01:40:33;100566.44;;;11.45;100.00
7441;BME280;29616;51.950;8.572;2023-05-08T01:43:13;100568.47;;;11.43;100.00
7441;BME280;29616;51.950;8.572;2023-05-08T01:45:48;100574.69;;;11.35;100.00
7441;BME280;29616;51.950;8.572;2023-05-08T01:48:27;100575.09;;;11.40;100.00
7441;BME280;29616;51.950;8.572;2023-05-08T01:51:03;100569.09;;;11.27;100.00
7441;BME280;29616;51.950;8.572;2023-05-08T01:53:39;100578.59;;;11.33;100.00
7441;BME280;29616;51.950;8.572;2023-05-08T01:56:14;100576.13;;;11.30;100.00
7441;BME280;29616;51.950;8.572;2023-05-08T01:58:45;100572.81;;;11.26;100.00
7441;BME280;29616;51.950;8.572;2023-05-08T02:01:19;100576.72;;;11.24;100.00
7441;BME280;29616;51.950;8.572;2023-05-08T02:03:51;100575.72;;;11.25;100.00
7441;BME280;29616;51.950;8.572;2023-05-08T02:06:22;100578.16;;;11.18;100.00
7441;BME280;29616;51.950;8.572;2023-05-08T02:08:53;100577.59;;;11.15;100.00
7441;BME280;29616;51.950;8.572;2023-05-08T02:11:23;100577.47;;;11.07;100.00
7441;BME280;29616;51.950;8.572;2023-05-08T02:13:53;100569.25;;;10.97;100.00
7441;BME280;29616;51.950;8.572;2023-05-08T02:16:23;100580.31;;;11.05;100.00
7441;BME280;29616;51.950;8.572;2023-05-08T02:18:57;100579.03;;;11.00;100.00
7441;BME280;29616;51.950;8.572;2023-05-08T02:21:30;100576.28;;;11.00;100.00
7441;BME280;29616;51.950;8.572;2023-05-08T02:23:59;100572.13;;;10.95;100.00
7441;BME280;29616;51.950;8.572;2023-05-08T02:26:29;100570.13;;;10.88;100.00
7441;BME280;29616;51.950;8.572;2023-05-08T02:29:00;100570.84;;;10.90;100.00
7441;BME280;29616;51.950;8.572;2023-05-08T02:31:31;100575.72;;;10.86;100.00
7441;BME280;29616;51.950;8.572;2023-05-08T02:34:04;100567.66;;;10.75;100.00
7441;BME280;29616;51.950;8.572;2023-05-08T02:36:35;100581.63;;;10.72;100.00
7441;BME280;29616;51.950;8.572;2023-05-08T02:39:07;100581.78;;;10.80;100.00
7441;BME280;29616;51.950;8.572;2023-05-08T02:41:40;100567.09;;;10.72;100.00
7441;BME280;29616;51.950;8.572;2023-05-08T02:44:10;100569.34;;;10.57;100.00
7441;BME280;29616;51.950;8.572;2023-05-08T02:46:48;100576.84;;;10.55;100.00
7441;BME280;29616;51.950;8.572;2023-05-08T02:49:29;100578.28;;;10.59;100.00
7441;BME280;29616;51.950;8.572;2023-05-08T02:52:12;100580.44;;;10.56;100.00
7441;BME280;29616;51.950;8.572;2023-05-08T02:54:45;100573.78;;;10.49;100.00
7441;BME280;29616;51.950;8.572;2023-05-08T02:57:36;100579.13;;;10.50;100.00
7441;BME280;29616;51.950;8.572;2023-05-08T03:00:13;100575.09;;;10.45;100.00
7441;BME280;29616;51.950;8.572;2023-05-08T03:02:49;100577.66;;;10.37;100.00
7441;BME280;29616;51.950;8.572;2023-05-08T03:05:27;100579.69;;;10.34;100.00
7441;BME280;29616;51.950;8.572;2023-05-08T03:08:02;100577.50;;;10.38;100.00
7441;BME280;29616;51.950;8.572;2023-05-08T03:10:35;100578.53;;;10.37;100.00
7441;BME280;29616;51.950;8.572;2023-05-08T03:13:06;100570.91;;;10.31;100.00
7441;BME280;29616;51.950;8.572;2023-05-08T03:15:43;100565.59;;;10.29;100.00
7441;BME280;29616;51.950;8.572;2023-05-08T03:18:18;100558.94;;;10.22;100.00
7441;BME280;29616;51.950;8.572;2023-05-08T03:20:53;100570.13;;;10.19;100.00
7441;BME280;29616;51.950;8.572;2023-05-08T03:23:24;100558.66;;;10.16;100.00
7441;BME280;29616;51.950;8.572;2023-05-08T03:25:58;100568.69;;;10.15;100.00
7441;BME280;29616;51.950;8.572;2023-05-08T03:28:28;100564.09;;;10.16;100.00
7441;BME280;29616;51.950;8.572;2023-05-08T03:31:00;100562.38;;;10.15;100.00
7441;BME280;29616;51.950;8.572;2023-05-08T03:33:30;100558.56;;;10.06;100.00
7441;BME280;29616;51.950;8.572;2023-05-08T03:36:02;100563.38;;;10.14;100.00
7441;BME280;29616;51.950;8.572;2023-05-08T03:38:33;100554.13;;;10.05;100.00
7441;BME280;29616;51.950;8.572;2023-05-08T03:41:02;100554.69;;;10.09;100.00
7441;BME280;29616;51.950;8.572;2023-05-08T03:43:36;100558.44;;;10.08;100.00
7441;BME280;29616;51.950;8.572;2023-05-08T03:46:06;100559.69;;;10.04;100.00
7441;BME280;29616;51.950;8.572;2023-05-08T03:48:37;100560.16;;;10.09;100.00
7441;BME280;29616;51.950;8.572;2023-05-08T03:51:10;100559.16;;;10.10;100.00
7441;BME280;29616;51.950;8.572;2023-05-08T03:53:42;100551.94;;;9.99;100.00
7441;BME280;29616;51.950;8.572;2023-05-08T03:56:12;100561.44;;;10.05;100.00
7441;BME280;29616;51.950;8.572;2023-05-08T03:58:47;100546.31;;;10.01;100.00
7441;BME280;29616;51.950;8.572;2023-05-08T04:01:24;100559.44;;;10.07;100.00
7441;BME280;29616;51.950;8.572;2023-05-08T04:04:04;100564.47;;;10.11;100.00
7441;BME280;29616;51.950;8.572;2023-05-08T04:06:43;100564.88;;;10.07;100.00
7441;BME280;29616;51.950;8.572;2023-05-08T04:09:34;100550.19;;;9.98;100.00
7441;BME280;29616;51.950;8.572;2023-05-08T04:12:11;100553.78;;;9.99;100.00
7441;BME280;29616;51.950;8.572;2023-05-08T04:14:44;100565.03;;;10.05;100.00
7441;BME280;29616;51.950;8.572;2023-05-08T04:17:21;100565.16;;;10.04;100.00
7441;BME280;29616;51.950;8.572;2023-05-08T04:19:59;100544.63;;;10.00;100.00
7441;BME280;29616;51.950;8.572;2023-05-08T04:22:32;100549.72;;;10.14;100.00
7441;BME280;29616;51.950;8.572;2023-05-08T04:25:06;100550.88;;;10.21;100.00
7441;BME280;29616;51.950;8.572;2023-05-08T04:27:38;100553.19;;;10.25;100.00
7441;BME280;29616;51.950;8.572;2023-05-08T04:30:08;100556.25;;;10.32;100.00
7441;BME280;29616;51.950;8.572;2023-05-08T04:32:39;100566.31;;;10.41;100.00
7441;BME280;29616;51.950;8.572;2023-05-08T04:35:15;100557.66;;;10.36;100.00
7441;BME280;29616;51.950;8.572;2023-05-08T04:37:46;100553.53;;;10.51;100.00
7441;BME280;29616;51.950;8.572;2023-05-08T04:40:17;100550.50;;;10.54;100.00
7441;BME280;29616;51.950;8.572;2023-05-08T04:42:45;100543.91;;;10.76;100.00
7441;BME280;29616;51.950;8.572;2023-05-08T04:45:17;100546.50;;;10.87;100.00
7441;BME280;29616;51.950;8.572;2023-05-08T04:47:47;100553.53;;;10.99;100.00
7441;BME280;29616;51.950;8.572;2023-05-08T04:50:16;100556.28;;;11.09;100.00
7441;BME280;29616;51.950;8.572;2023-05-08T04:52:49;100556.84;;;11.22;100.00
7441;BME280;29616;51.950;8.572;2023-05-08T04:55:17;100561.88;;;11.36;100.00
7441;BME280;29616;51.950;8.572;2023-05-08T04:57:47;100557.81;;;11.49;100.00
7441;BME280;29616;51.950;8.572;2023-05-08T05:00:17;100572.19;;;11.71;100.00
7441;BME280;29616;51.950;8.572;2023-05-08T05:02:47;100569.81;;;11.85;100.00
7441;BME280;29616;51.950;8.572;2023-05-08T05:05:17;100573.78;;;12.00;100.00
7441;BME280;29616;51.950;8.572;2023-05-08T05:07:50;100575.75;;;12.18;100.00
7441;BME280;29616;51.950;8.572;2023-05-08T05:10:20;100585.16;;;12.42;100.00
7441;BME280;29616;51.950;8.572;2023-05-08T05:12:51;100578.00;;;12.32;100.00
7441;BME280;29616;51.950;8.572;2023-05-08T05:15:21;100595.75;;;12.72;100.00
7441;BME280;29616;51.950;8.572;2023-05-08T05:17:51;100586.00;;;13.05;100.00
7441;BME280;29616;51.950;8.572;2023-05-08T05:20:20;100584.88;;;13.51;100.00
7441;BME280;29616;51.950;8.572;2023-05-08T05:22:50;100587.50;;;13.61;100.00
7441;BME280;29616;51.950;8.572;2023-05-08T05:25:19;100580.38;;;13.68;100.00
7441;BME280;29616;51.950;8.572;2023-05-08T05:27:49;100580.81;;;13.81;100.00
7441;BME280;29616;51.950;8.572;2023-05-08T05:30:20;100587.31;;;13.80;100.00
7441;BME280;29616;51.950;8.572;2023-05-08T05:32:50;100594.66;;;14.05;100.00
7441;BME280;29616;51.950;8.572;2023-05-08T05:35:18;100591.78;;;13.81;100.00
7441;BME280;29616;51.950;8.572;2023-05-08T05:37:50;100582.72;;;13.63;100.00
7441;BME280;29616;51.950;8.572;2023-05-08T05:40:20;100596.44;;;13.19;100.00
7441;BME280;29616;51.950;8.572;2023-05-08T05:42:50;100594.63;;;13.28;100.00
7441;BME280;29616;51.950;8.572;2023-05-08T05:45:19;100592.88;;;13.45;100.00
7441;BME280;29616;51.950;8.572;2023-05-08T05:47:49;100601.16;;;13.70;100.00
7441;BME280;29616;51.950;8.572;2023-05-08T05:50:23;100606.00;;;13.76;100.00
7441;BME280;29616;51.950;8.572;2023-05-08T05:52:57;100599.69;;;14.43;100.00
7441;BME280;29616;51.950;8.572;2023-05-08T05:55:25;100611.81;;;14.67;100.00
7441;BME280;29616;51.950;8.572;2023-05-08T05:57:54;100610.66;;;14.85;100.00
7441;BME280;29616;51.950;8.572;2023-05-08T06:00:24;100611.97;;;15.80;100.00
7441;BME280;29616;51.950;8.572;2023-05-08T06:02:56;100610.13;;;16.35;100.00
7441;BME280;29616;51.950;8.572;2023-05-08T06:05:26;100608.31;;;16.50;100.00
7441;BME280;29616;51.950;8.572;2023-05-08T06:07:59;100614.53;;;16.52;100.00
7441;BME280;29616;51.950;8.572;2023-05-08T06:10:28;100619.19;;;16.90;100.00
7441;BME280;29616;51.950;8.572;2023-05-08T06:13:00;100604.63;;;17.27;100.00
7441;BME280;29616;51.950;8.572;2023-05-08T06:15:29;100611.59;;;17.69;100.00
7441;BME280;29616;51.950;8.572;2023-05-08T06:18:00;100609.88;;;18.20;100.00
7441;BME280;29616;51.950;8.572;2023-05-08T06:20:28;100612.69;;;18.99;100.00
7441;BME280;29616;51.950;8.572;2023-05-08T06:23:01;100614.38;;;19.00;100.00
7441;BME280;29616;51.950;8.572;2023-05-08T06:25:29;100625.91;;;18.39;100.00
7441;BME280;29616;51.950;8.572;2023-05-08T06:27:59;100619.47;;;17.94;100.00
7441;BME280;29616;51.950;8.572;2023-05-08T06:30:29;100624.47;;;17.76;100.00
7441;BME280;29616;51.950;8.572;2023-05-08T06:32:58;100626.66;;;17.66;100.00
7441;BME280;29616;51.950;8.572;2023-05-08T06:35:29;100625.28;;;17.62;100.00
7441;BME280;29616;51.950;8.572;2023-05-08T06:38:00;100628.59;;;17.35;100.00
7441;BME280;29616;51.950;8.572;2023-05-08T06:40:28;100614.16;;;17.70;100.00
7441;BME280;29616;51.950;8.572;2023-05-08T06:42:57;100619.75;;;17.99;100.00
7441;BME280;29616;51.950;8.572;2023-05-08T06:45:28;100628.88;;;18.23;100.00
7441;BME280;29616;51.950;8.572;2023-05-08T06:47:56;100629.19;;;19.07;100.00
7441;BME280;29616;51.950;8.572;2023-05-08T06:50:26;100629.13;;;19.22;100.00
7441;BME280;29616;51.950;8.572;2023-05-08T06:52:55;100629.41;;;19.42;100.00
7441;BME280;29616;51.950;8.572;2023-05-08T06:55:29;100619.91;;;19.51;100.00
7441;BME280;29616;51.950;8.572;2023-05-08T06:57:57;100634.72;;;19.07;100.00
7441;BME280;29616;51.950;8.572;2023-05-08T07:00:28;100629.06;;;18.50;100.00
7441;BME280;29616;51.950;8.572;2023-05-08T07:02:58;100632.91;;;18.49;100.00
7441;BME280;29616;51.950;8.572;2023-05-08T07:05:26;100631.09;;;18.56;100.00
7441;BME280;29616;51.950;8.572;2023-05-08T07:07:56;100623.53;;;18.65;100.00
7441;BME280;29616;51.950;8.572;2023-05-08T07:10:24;100621.78;;;18.35;100.00
7441;BME280;29616;51.950;8.572;2023-05-08T07:12:55;100624.81;;;18.10;100.00
7441;BME280;29616;51.950;8.572;2023-05-08T07:15:24;100625.97;;;18.01;100.00
7441;BME280;29616;51.950;8.572;2023-05-08T07:17:54;100622.81;;;18.04;100.00
7441;BME280;29616;51.950;8.572;2023-05-08T07:20:23;100614.84;;;18.39;100.00
7441;BME280;29616;51.950;8.572;2023-05-08T07:22:52;100624.84;;;18.69;100.00
7441;BME280;29616;51.950;8.572;2023-05-08T07:25:22;100627.63;;;18.84;100.00
7441;BME280;29616;51.950;8.572;2023-05-08T07:27:52;100620.50;;;18.96;100.00
7441;BME280;29616;51.950;8.572;2023-05-08T07:30:23;100626.44;;;19.28;100.00
7441;BME280;29616;51.950;8.572;2023-05-08T07:32:52;100616.91;;;19.52;100.00
7441;BME280;29616;51.950;8.572;2023-05-08T07:35:21;100611.25;;;20.09;100.00
7441;BME280;29616;51.950;8.572;2023-05-08T07:37:51;100625.91;;;20.31;100.00
7441;BME280;29616;51.950;8.572;2023-05-08T07:40:19;100615.00;;;21.04;100.00
7441;BME280;29616;51.950;8.572;2023-05-08T07:42:50;100612.06;;;20.65;100.00
7441;BME280;29616;51.950;8.572;2023-05-08T07:45:19;100617.31;;;20.94;100.00
7441;BME280;29616;51.950;8.572;2023-05-08T07:47:52;100617.66;;;20.37;100.00
7441;BME280;29616;51.950;8.572;2023-05-08T07:50:24;100617.38;;;20.67;100.00
7441;BME280;29616;51.950;8.572;2023-05-08T07:52:54;100619.13;;;20.74;100.00
7441;BME280;29616;51.950;8.572;2023-05-08T07:55:23;100601.06;;;20.23;100.00
7441;BME280;29616;51.950;8.572;2023-05-08T07:57:51;100607.00;;;20.13;100.00
7441;BME280;29616;51.950;8.572;2023-05-08T08:00:20;100597.66;;;20.48;100.00
7441;BME280;29616;51.950;8.572;2023-05-08T08:02:51;100594.78;;;20.76;100.00
7441;BME280;29616;51.950;8.572;2023-05-08T08:05:21;100604.78;;;20.64;100.00
7441;BME280;29616;51.950;8.572;2023-05-08T08:07:50;100583.13;;;21.00;100.00
7441;BME280;29616;51.950;8.572;2023-05-08T08:10:19;100595.88;;;21.49;100.00
7441;BME280;29616;51.950;8.572;2023-05-08T08:12:49;100592.53;;;22.06;100.00
7441;BME280;29616;51.950;8.572;2023-05-08T08:15:17;100586.63;;;22.66;100.00
7441;BME280;29616;51.950;8.572;2023-05-08T08:17:47;100583.19;;;23.15;100.00
7441;BME280;29616;51.950;8.572;2023-05-08T08:20:20;100590.38;;;23.67;100.00
7441;BME280;29616;51.950;8.572;2023-05-08T08:22:51;100582.53;;;24.07;98.15
7441;BME280;29616;51.950;8.572;2023-05-08T08:25:21;100590.69;;;24.08;100.00
7441;BME280;29616;51.950;8.572;2023-05-08T08:27:50;100582.84;;;24.24;95.85
7441;BME280;29616;51.950;8.572;2023-05-08T08:30:19;100592.84;;;24.49;95.44
7441;BME280;29616;51.950;8.572;2023-05-08T08:32:48;100582.56;;;24.86;85.00
7441;BME280;29616;51.950;8.572;2023-05-08T08:35:19;100582.31;;;24.51;87.84
7441;BME280;29616;51.950;8.572;2023-05-08T08:37:53;100579.19;;;24.23;90.25
7441;BME280;29616;51.950;8.572;2023-05-08T08:40:23;100575.88;;;23.83;91.88
7441;BME280;29616;51.950;8.572;2023-05-08T08:42:53;100569.63;;;24.13;92.85
7441;BME280;29616;51.950;8.572;2023-05-08T08:45:22;100580.00;;;24.85;89.56
7441;BME280;29616;51.950;8.572;2023-05-08T08:47:52;100581.69;;;25.52;81.68
7441;BME280;29616;51.950;8.572;2023-05-08T08:50:25;100578.56;;;25.42;83.38
7441;BME280;29616;51.950;8.572;2023-05-08T08:53:00;100578.13;;;26.09;82.83
7441;BME280;29616;51.950;8.572;2023-05-08T08:55:39;100574.69;;;25.84;77.49
7441;BME280;29616;51.950;8.572;2023-05-08T08:58:16;100589.06;;;25.99;82.47
7441;BME280;29616;51.950;8.572;2023-05-08T09:00:47;100575.19;;;26.04;81.61
7441;BME280;29616;51.950;8.572;2023-05-08T09:03:16;100582.47;;;25.82;82.02
7441;BME280;29616;51.950;8.572;2023-05-08T09:05:48;100580.84;;;26.16;84.33
7441;BME280;29616;51.950;8.572;2023-05-08T09:08:18;100577.56;;;26.42;75.73
7441;BME280;29616;51.950;8.572;2023-05-08T09:10:48;100586.81;;;26.19;80.18
7441;BME280;29616;51.950;8.572;2023-05-08T09:13:18;100584.84;;;26.55;77.01
7441;BME280;29616;51.950;8.572;2023-05-08T09:15:48;100581.34;;;26.13;78.15
7441;BME280;29616;51.950;8.572;2023-05-08T09:18:18;100590.47;;;26.20;78.57
7441;BME280;29616;51.950;8.572;2023-05-08T09:20:49;100593.50;;;26.53;77.41
7441;BME280;29616;51.950;8.572;2023-05-08T09:23:20;100586.09;;;25.71;84.99
7441;BME280;29616;51.950;8.572;2023-05-08T09:25:49;100595.41;;;26.76;81.27
7441;BME280;29616;51.950;8.572;2023-05-08T09:28:21;100585.19;;;26.70;79.37
7441;BME280;29616;51.950;8.572;2023-05-08T09:30:53;100583.63;;;26.27;83.47
7441;BME280;29616;51.950;8.572;2023-05-08T09:33:25;100592.75;;;26.58;78.21
7441;BME280;29616;51.950;8.572;2023-05-08T09:35:56;100595.69;;;26.51;80.06
7441;BME280;29616;51.950;8.572;2023-05-08T09:38:35;100586.81;;;26.19;85.78
7441;BME280;29616;51.950;8.572;2023-05-08T09:41:08;100582.03;;;26.66;86.32
7441;BME280;29616;51.950;8.572;2023-05-08T09:43:39;100590.69;;;27.16;78.92
7441;BME280;29616;51.950;8.572;2023-05-08T09:46:22;100584.47;;;26.63;85.13
7441;BME280;29616;51.950;8.572;2023-05-08T09:48:55;100588.19;;;27.03;85.44
7441;BME280;29616;51.950;8.572;2023-05-08T09:51:28;100589.41;;;27.35;76.29
7441;BME280;29616;51.950;8.572;2023-05-08T09:53:59;100590.53;;;27.23;78.59
7441;BME280;29616;51.950;8.572;2023-05-08T09:56:33;100587.34;;;27.31;81.52
7441;BME280;29616;51.950;8.572;2023-05-08T09:59:04;100595.06;;;27.52;75.81
7441;BME280;29616;51.950;8.572;2023-05-08T10:01:35;100586.56;;;27.07;78.03
7441;BME280;29616;51.950;8.572;2023-05-08T10:04:06;100588.13;;;27.54;80.76
7441;BME280;29616;51.950;8.572;2023-05-08T10:06:39;100585.50;;;27.64;87.28
7441;BME280;29616;51.950;8.572;2023-05-08T10:09:10;100599.50;;;27.48;74.36
7441;BME280;29616;51.950;8.572;2023-05-08T10:11:48;100596.50;;;27.26;75.51
7441;BME280;29616;51.950;8.572;2023-05-08T10:14:23;100589.81;;;26.64;79.95
7441;BME280;29616;51.950;8.572;2023-05-08T10:16:53;100589.34;;;26.79;81.57
7441;BME280;29616;51.950;8.572;2023-05-08T10:19:23;100592.25;;;27.24;77.54
7441;BME280;29616;51.950;8.572;2023-05-08T10:21:57;100586.78;;;27.74;74.56
7441;BME280;29616;51.950;8.572;2023-05-08T10:24:32;100594.19;;;27.80;75.10
7441;BME280;29616;51.950;8.572;2023-05-08T10:27:16;100584.22;;;27.55;72.70
7441;BME280;29616;51.950;8.572;2023-05-08T10:29:51;100581.16;;;27.74;77.14
7441;BME280;29616;51.950;8.572;2023-05-08T10:32:23;100588.16;;;28.54;73.76
7441;BME280;29616;51.950;8.572;2023-05-08T10:34:57;100587.94;;;28.06;74.16
7441;BME280;29616;51.950;8.572;2023-05-08T10:37:29;100591.03;;;27.76;74.43
7441;BME280;29616;51.950;8.572;2023-05-08T10:40:00;100589.69;;;27.79;73.70
7441;BME280;29616;51.950;8.572;2023-05-08T10:42:33;100577.84;;;28.05;74.47
7441;BME280;29616;51.950;8.572;2023-05-08T10:45:05;100571.00;;;28.17;75.85
7441;BME280;29616;51.950;8.572;2023-05-08T10:47:50;100573.19;;;27.99;75.55
7441;BME280;29616;51.950;8.572;2023-05-08T10:50:35;100572.22;;;28.05;78.96
7441;BME280;29616;51.950;8.572;2023-05-08T10:53:15;100571.94;;;28.61;76.59
7441;BME280;29616;51.950;8.572;2023-05-08T10:55:50;100573.19;;;28.32;71.83
7441;BME280;29616;51.950;8.572;2023-05-08T10:58:29;100571.88;;;29.38;67.37
7441;BME280;29616;51.950;8.572;2023-05-08T11:01:15;100578.81;;;29.09;71.32
7441;BME280;29616;51.950;8.572;2023-05-08T11:03:47;100568.94;;;29.81;68.38
7441;BME280;29616;51.950;8.572;2023-05-08T11:06:44;100574.16;;;28.98;66.81
7441;BME280;29616;51.950;8.572;2023-05-08T11:09:21;100574.16;;;29.99;67.82
7441;BME280;29616;51.950;8.572;2023-05-08T11:12:03;100577.47;;;30.23;63.04
7441;BME280;29616;51.950;8.572;2023-05-08T11:14:39;100563.00;;;30.10;65.14
7441;BME280;29616;51.950;8.572;2023-05-08T11:17:10;100564.44;;;30.54;64.71
7441;BME280;29616;51.950;8.572;2023-05-08T11:19:55;100570.06;;;30.96;61.77
7441;BME280;29616;51.950;8.572;2023-05-08T11:22:30;100567.13;;;31.43;68.97
7441;BME280;29616;51.950;8.572;2023-05-08T11:25:04;100563.81;;;31.71;60.80
7441;BME280;29616;51.950;8.572;2023-05-08T11:28:05;100565.91;;;30.25;61.79
7441;BME280;29616;51.950;8.572;2023-05-08T11:30:38;100576.81;;;29.31;64.80
7441;BME280;29616;51.950;8.572;2023-05-08T11:33:15;100578.63;;;28.55;76.99
7441;BME280;29616;51.950;8.572;2023-05-08T11:35:53;100569.72;;;28.08;76.35
7441;BME280;29616;51.950;8.572;2023-05-08T11:38:27;100560.00;;;27.99;80.29
7441;BME280;29616;51.950;8.572;2023-05-08T11:41:03;100566.31;;;28.40;72.65
7441;BME280;29616;51.950;8.572;2023-05-08T11:44:09;100579.09;;;29.12;71.98
7441;BME280;29616;51.950;8.572;2023-05-08T11:46:48;100573.00;;;29.20;69.10
7441;BME280;29616;51.950;8.572;2023-05-08T11:49:20;100565.13;;;28.57;72.68
7441;BME280;29616;51.950;8.572;2023-05-08T11:51:57;100565.47;;;28.06;76.96
7441;BME280;29616;51.950;8.572;2023-05-08T11:54:29;100562.63;;;27.73;80.82
7441;BME280;29616;51.950;8.572;2023-05-08T11:57:02;100565.19;;;28.24;82.56
7441;BME280;29616;51.950;8.572;2023-05-08T11:59:34;100561.94;;;27.65;86.54
7441;BME280;29616;51.950;8.572;2023-05-08T12:02:04;100562.56;;;27.67;82.85
7441;BME280;29616;51.950;8.572;2023-05-08T12:04:43;100558.91;;;27.84;82.22
7441;BME280;29616;51.950;8.572;2023-05-08T12:07:13;100558.69;;;26.26;92.43
7441;BME280;29616;51.950;8.572;2023-05-08T12:09:45;100548.41;;;26.55;92.21
7441;BME280;29616;51.950;8.572;2023-05-08T12:12:16;100559.03;;;26.53;92.08
7441;BME280;29616;51.950;8.572;2023-05-08T12:14:48;100558.53;;;26.56;90.97
7441;BME280;29616;51.950;8.572;2023-05-08T12:17:20;100560.47;;;26.43;92.37
7441;BME280;29616;51.950;8.572;2023-05-08T12:19:54;100558.66;;;26.61;91.58
7441;BME280;29616;51.950;8.572;2023-05-08T12:22:23;100560.47;;;26.55;92.84
7441;BME280;29616;51.950;8.572;2023-05-08T12:24:52;100550.88;;;26.39;98.37
7441;BME280;29616;51.950;8.572;2023-05-08T12:27:24;100551.81;;;26.57;93.35
7441;BME280;29616;51.950;8.572;2023-05-08T12:29:53;100546.25;;;26.96;94.60
7441;BME280;29616;51.950;8.572;2023-05-08T12:32:22;100543.91;;;28.28;85.82
7441;BME280;29616;51.950;8.572;2023-05-08T12:34:56;100550.03;;;27.75;88.29
7441;BME280;29616;51.950;8.572;2023-05-08T12:37:26;100547.88;;;27.21;97.47
7441;BME280;29616;51.950;8.572;2023-05-08T12:39:55;100552.41;;;27.66;87.04
7441;BME280;29616;51.950;8.572;2023-05-08T12:42:43;100545.50;;;27.41;85.78
7441;BME280;29616;51.950;8.572;2023-05-08T12:45:17;100551.94;;;27.13;89.44
7441;BME280;29616;51.950;8.572;2023-05-08T12:47:47;100537.72;;;26.28;95.78
7441;BME280;29616;51.950;8.572;2023-05-08T12:50:20;100541.00;;;26.14;94.14
7441;BME280;29616;51.950;8.572;2023-05-08T12:52:50;100533.31;;;26.32;92.29
7441;BME280;29616;51.950;8.572;2023-05-08T12:55:22;100535.78;;;26.17;90.18
7441;BME280;29616;51.950;8.572;2023-05-08T12:58:01;100536.59;;;27.77;84.90
7441;BME280;29616;51.950;8.572;2023-05-08T13:00:37;100528.00;;;27.22;91.21
7441;BME280;29616;51.950;8.572;2023-05-08T13:03:12;100536.47;;;26.99;87.78
7441;BME280;29616;51.950;8.572;2023-05-08T13:05:43;100535.41;;;26.14;97.47
7441;BME280;29616;51.950;8.572;2023-05-08T13:08:13;100536.44;;;25.66;100.00
7441;BME280;29616;51.950;8.572;2023-05-08T13:10:50;100520.00;;;25.47;100.00
7441;BME280;29616;51.950;8.572;2023-05-08T13:13:22;100531.03;;;24.82;100.00
7441;BME280;29616;51.950;8.572;2023-05-08T13:15:54;100524.56;;;24.82;100.00
7441;BME280;29616;51.950;8.572;2023-05-08T13:18:25;100529.91;;;24.65;100.00
7441;BME280;29616;51.950;8.572;2023-05-08T13:20:55;100533.34;;;24.31;100.00
7441;BME280;29616;51.950;8.572;2023-05-08T13:23:24;100527.69;;;24.19;100.00
7441;BME280;29616;51.950;8.572;2023-05-08T13:25:55;100531.88;;;24.03;100.00